Time;durP1;ratioP1;P1;durP2;ratioP2;P2;SDS_P1;SDS_P2;PMS_P1;PMS_P2;Temp;Humidity;BMP_temperature;BMP_pressure;BME280_temperature;BME280_humidity;BME280_pressure;Samples;Min_cycle;Max_cycle;Signal;HPM_P1;HPM_P2
2023/09/09 00:01:41;;;;;;;8.27;6.60;;;24.60;61.50;;;27.11;42.82;101547.56;4939251;29;20194;-67
2023/09/09 00:04:09;;;;;;;7.07;6.37;;;24.60;61.70;;;27.09;42.79;101538.91;4938996;29;20221;-67
2023/09/09 00:06:37;;;;;;;6.37;5.77;;;24.50;61.80;;;27.05;42.79;101537.81;4938363;29;20205;-69
2023/09/09 00:09:05;;;;;;;7.07;6.10;;;24.50;61.90;;;27.02;43.33;101533.75;4919711;29;20219;-67
2023/09/09 00:11:32;;;;;;;7.03;6.13;;;24.40;62.00;;;26.98;43.16;101531.84;4919904;29;20702;-67
2023/09/09 00:14:01;;;;;;;7.63;6.80;;;24.40;62.20;;;26.95;43.28;101533.19;4920241;29;20273;-67
2023/09/09 00:16:34;;;;;;;6.40;5.80;;;24.40;62.40;;;26.93;43.14;101546.16;4927324;29;20261;-67
2023/09/09 00:19:02;;;;;;;10.83;8.67;;;24.30;62.40;;;26.88;43.17;101532.59;4937713;29;20233;-67
2023/09/09 00:21:29;;;;;;;7.80;7.00;;;24.30;62.50;;;26.85;42.97;101538.53;4938638;29;20208;-67
2023/09/09 00:23:57;;;;;;;8.50;6.17;;;24.30;62.80;;;26.84;43.18;101534.19;4938342;29;20198;-67
2023/09/09 00:26:27;;;;;;;6.50;5.90;;;24.20;62.90;;;26.83;43.51;101532.56;4928852;29;20198;-67
2023/09/09 00:28:54;;;;;;;6.47;5.87;;;24.20;63.00;;;26.80;43.61;101524.97;4919290;29;20330;-67
2023/09/09 00:31:23;;;;;;;6.47;5.97;;;24.20;63.20;;;26.78;43.08;101527.13;4934142;29;20293;-68
2023/09/09 00:33:52;;;;;;;6.63;6.00;;;24.10;63.30;;;26.75;43.75;101525.78;4938525;29;20202;-66
2023/09/09 00:36:19;;;;;;;7.03;6.33;;;24.10;64.20;;;26.72;43.50;101528.97;4938646;29;20273;-67
2023/09/09 00:38:46;;;;;;;7.97;6.13;;;24.10;63.60;;;26.69;43.34;101524.09;4932067;29;20635;-67
2023/09/09 00:41:15;;;;;;;7.03;6.33;;;24.10;63.80;;;26.67;43.58;101525.44;4919494;29;20212;-67
2023/09/09 00:43:43;;;;;;;8.07;6.53;;;24.00;63.70;;;26.64;43.78;101526.78;4919703;29;20706;-67
2023/09/09 00:46:11;;;;;;;5.80;5.40;;;24.00;64.10;;;26.62;43.72;101528.09;4931220;29;20253;-67
2023/09/09 00:48:40;;;;;;;6.77;6.17;;;24.00;64.20;;;26.60;43.78;101525.66;4937903;29;20210;-67
2023/09/09 00:51:11;;;;;;;7.43;5.53;;;23.90;64.40;;;26.58;44.27;101522.41;4937874;29;20261;-67
2023/09/09 00:53:40;;;;;;;7.83;7.13;;;23.90;64.60;;;26.56;43.78;101529.97;4938101;29;20201;-67
2023/09/09 00:56:08;;;;;;;8.13;6.23;;;23.90;65.10;;;26.57;43.98;101531.59;4948847;28;20214;-67
2023/09/09 00:58:35;;;;;;;6.27;5.67;;;23.90;65.20;;;26.56;43.96;101529.97;4919063;29;20297;-67
2023/09/09 01:01:03;;;;;;;6.93;6.33;;;23.80;65.30;;;26.57;44.31;101528.06;4919373;29;20208;-67
2023/09/09 01:03:30;;;;;;;7.33;6.63;;;23.90;65.30;;;26.56;44.21;101524.56;4930989;29;20233;-67
2023/09/09 01:06:01;;;;;;;6.37;5.60;;;23.80;65.30;;;26.55;44.38;101520.25;4938027;29;20242;-67
2023/09/09 01:08:30;;;;;;;8.10;7.33;;;23.80;65.40;;;26.54;43.77;101517.78;4937695;29;20205;-67
2023/09/09 01:10:57;;;;;;;7.47;6.37;;;23.80;65.50;;;26.52;43.93;101520.75;4937490;29;20225;-67
2023/09/09 01:13:25;;;;;;;7.33;6.63;;;23.80;65.70;;;26.48;44.37;101513.44;4937883;29;20718;-67
2023/09/09 01:15:53;;;;;;;6.47;5.97;;;23.70;65.70;;;26.46;44.61;101516.38;4937727;29;20198;-67
2023/09/09 01:18:21;;;;;;;7.27;6.60;;;23.70;65.90;;;26.44;43.98;101518.53;4930411;29;20202;-67
2023/09/09 01:21:04;;;;;;;7.27;6.57;;;23.70;66.00;;;26.39;44.12;101514.97;4935717;29;20583;-67
2023/09/09 01:23:33;;;;;;;8.17;7.37;;;23.60;66.10;;;26.36;44.29;101518.22;4937791;29;20190;-67
2023/09/09 01:26:00;;;;;;;7.63;6.93;;;23.60;66.50;;;26.35;44.72;101517.41;4933093;29;20226;-67
2023/09/09 01:28:27;;;;;;;7.37;6.60;;;23.60;66.80;;;26.33;44.61;101519.53;4937441;29;20288;-67
2023/09/09 01:30:55;;;;;;;7.93;6.73;;;23.60;66.70;;;26.31;45.08;101516.28;4937313;29;20214;-67
2023/09/09 01:33:22;;;;;;;7.47;6.70;;;23.60;66.70;;;26.27;44.79;101514.38;4934620;29;20520;-67
2023/09/09 01:35:49;;;;;;;6.93;6.33;;;23.50;66.80;;;26.24;44.53;101513.00;4937401;29;20202;-66
2023/09/09 01:38:16;;;;;;;7.97;7.23;;;23.50;66.90;;;26.21;44.80;101516.22;4936816;29;20229;-67
2023/09/09 01:40:44;;;;;;;7.27;6.57;;;23.50;67.00;;;26.18;45.10;101514.03;4926844;29;20254;-67
2023/09/09 01:43:11;;;;;;;7.60;6.80;;;23.40;67.20;;;26.14;45.36;101512.94;4918519;29;20218;-67
2023/09/09 01:45:38;;;;;;;7.10;6.47;;;23.40;67.40;;;26.12;44.73;101517.78;4926088;29;20313;-67
2023/09/09 01:48:06;;;;;;;6.53;5.90;;;23.40;67.40;;;26.09;45.34;101515.56;4936841;29;20220;-67
2023/09/09 01:50:33;;;;;;;8.83;6.70;;;23.30;67.60;;;26.05;45.51;101514.44;4936911;29;20214;-67
2023/09/09 01:53:03;;;;;;;7.10;6.40;;;23.30;67.70;;;26.03;45.16;101513.91;4937114;29;20300;-67
2023/09/09 01:55:30;;;;;;;6.67;6.13;;;23.30;67.90;;;26.00;45.36;101511.72;4937385;29;20670;-67
2023/09/09 01:57:59;;;;;;;8.33;7.13;;;23.20;68.00;;;25.98;45.09;101511.16;4937059;29;20746;-67
2023/09/09 02:00:27;;;;;;;7.93;7.23;;;23.20;68.20;;;25.92;45.53;101518.38;4936455;29;20240;-67
2023/09/09 02:02:55;;;;;;;7.03;6.43;;;23.20;68.20;;;25.88;45.22;101516.47;4937148;29;20683;-67
2023/09/09 02:05:22;;;;;;;8.00;7.20;;;23.10;68.20;;;25.85;45.45;101516.97;4936761;29;20201;-67
2023/09/09 02:07:50;;;;;;;6.80;6.20;;;23.10;68.30;;;25.84;45.78;101515.34;4936213;29;20230;-67
2023/09/09 02:10:17;;;;;;;7.60;6.90;;;23.10;68.40;;;25.80;45.58;101511.50;4936073;29;20217;-67
2023/09/09 02:12:44;;;;;;;9.43;6.93;;;23.10;68.60;;;25.78;45.91;101516.34;4936800;29;20304;-67
2023/09/09 02:15:13;;;;;;;7.40;6.70;;;23.10;68.60;;;25.76;45.56;101518.50;4936980;29;20269;-68
2023/09/09 02:21:46;;;;;;;8.20;7.40;;;23.10;68.90;;;25.59;46.40;101507.00;4936885;29;20230;-67
2023/09/09 02:24:14;;;;;;;7.67;7.00;;;23.00;68.70;;;25.60;45.92;101508.63;4936732;29;20253;-67
2023/09/09 02:26:41;;;;;;;8.77;7.53;;;23.00;68.80;;;25.58;46.30;101506.19;4922777;29;20203;-67
2023/09/09 02:29:08;;;;;;;8.27;7.47;;;22.90;69.00;;;25.57;45.83;101498.34;4931190;29;20264;-67
2023/09/09 02:31:36;;;;;;;7.30;6.70;;;22.90;69.10;;;25.58;46.67;101502.69;4936037;29;20222;-67
2023/09/09 02:34:04;;;;;;;8.00;7.30;;;22.90;69.30;;;25.55;46.11;101495.94;4921857;29;20232;-67
2023/09/09 02:36:31;;;;;;;7.30;6.57;;;22.90;69.40;;;25.55;46.50;101499.41;4936151;29;20197;-67
2023/09/09 02:38:58;;;;;;;8.73;7.20;;;22.90;69.30;;;25.55;46.53;101501.31;4936249;29;20214;-67
2023/09/09 02:41:25;;;;;;;7.87;7.17;;;22.90;69.50;;;25.53;46.46;101496.16;4936457;29;20718;-67
2023/09/09 02:43:52;;;;;;;8.13;7.03;;;22.80;69.70;;;25.53;46.48;101493.47;4936479;29;20272;-67
2023/09/09 02:46:21;;;;;;;7.90;7.10;;;22.80;69.60;;;25.51;46.81;101495.59;4936562;29;20558;-67
2023/09/09 02:48:51;;;;;;;9.17;6.80;;;22.80;69.90;;;25.51;46.65;101495.59;4936293;29;20217;-67
2023/09/09 02:51:18;;;;;;;9.53;7.03;;;22.80;69.90;;;25.50;46.62;101485.91;4936383;29;20217;-67
2023/09/09 02:53:45;;;;;;;7.73;7.00;;;22.80;70.00;;;25.50;46.74;101499.38;4936334;29;20220;-67
2023/09/09 02:56:12;;;;;;;8.83;8.13;;;22.80;69.90;;;25.49;46.29;101497.75;4936021;29;20186;-67
2023/09/09 02:58:39;;;;;;;8.93;8.03;;;22.80;70.00;;;25.44;46.26;101495.00;4936021;29;20300;-67
2023/09/09 03:01:07;;;;;;;8.90;8.10;;;22.80;69.90;;;25.35;46.93;101491.09;4936351;29;20274;-67
2023/09/09 03:03:34;;;;;;;9.13;8.23;;;22.70;70.10;;;25.27;47.13;101493.44;4935742;29;20214;-67
2023/09/09 03:06:03;;;;;;;10.43;9.23;;;22.70;70.40;;;25.15;47.37;101492.78;4936284;29;20202;-67
2023/09/09 03:08:31;;;;;;;7.73;6.97;;;22.60;70.60;;;25.05;47.76;101485.38;4935777;29;20202;-67
2023/09/09 03:10:58;;;;;;;8.33;7.63;;;22.50;70.70;;;24.97;48.04;101493.88;4924577;29;20202;-67
2023/09/09 03:13:25;;;;;;;9.87;8.87;;;22.50;71.10;;;24.91;48.10;101492.22;4916828;29;20221;-67
2023/09/09 03:15:52;;;;;;;8.00;7.30;;;22.40;71.40;;;24.86;48.03;101494.84;4917275;29;20195;-67
2023/09/09 03:18:19;;;;;;;10.63;8.77;;;22.30;71.20;;;24.81;47.56;101489.38;4923640;29;20277;-67
2023/09/09 03:20:46;;;;;;;7.27;6.63;;;22.20;71.50;;;24.76;48.39;101487.44;4939387;29;20198;-67
2023/09/09 03:23:15;;;;;;;8.33;7.53;;;22.20;72.00;;;24.77;47.91;101488.25;4939578;29;20496;-67
2023/09/09 03:25:42;;;;;;;9.20;8.33;;;22.10;72.00;;;24.74;48.11;101492.25;4935258;29;20208;-67
2023/09/09 03:28:09;;;;;;;8.67;7.90;;;22.10;72.40;;;24.72;48.39;101490.84;4936760;29;20199;-67
2023/09/09 03:30:53;;;;;;;8.90;8.00;;;22.10;72.40;;;24.65;47.94;101495.63;4920282;29;20223;-67
2023/09/09 03:33:20;;;;;;;9.47;8.30;;;22.10;72.50;;;24.63;48.81;101484.25;4929887;29;20237;-67
2023/09/09 03:35:48;;;;;;;8.97;8.17;;;22.00;72.80;;;24.57;48.29;101490.63;4939734;29;20565;-67
2023/09/09 03:38:16;;;;;;;8.47;7.67;;;22.00;72.90;;;24.53;48.49;101492.22;4936819;29;20194;-67
2023/09/09 03:40:43;;;;;;;9.53;8.23;;;22.00;73.00;;;24.48;48.61;101494.81;4920790;29;20198;-67
2023/09/09 03:43:12;;;;;;;9.20;8.30;;;21.90;73.30;;;24.42;48.77;101491.25;4920484;29;20191;-67
2023/09/09 03:45:39;;;;;;;10.03;9.03;;;21.80;73.40;;;24.36;49.44;101496.81;4934326;29;20289;-67
2023/09/09 03:48:06;;;;;;;12.67;9.30;;;21.80;73.70;;;24.29;49.20;101490.78;4938975;29;20252;-67
2023/09/09 03:50:33;;;;;;;10.13;9.23;;;21.70;74.00;;;24.19;49.58;101486.88;4937911;29;20630;-67
2023/09/09 03:53:00;;;;;;;9.77;8.83;;;21.60;74.50;;;24.12;49.69;101493.47;4939107;29;20304;-67
2023/09/09 03:55:29;;;;;;;10.37;9.33;;;21.50;74.80;;;24.01;50.11;101495.16;4939449;29;20201;-67
2023/09/09 03:57:56;;;;;;;11.60;9.37;;;21.40;75.10;;;23.87;50.54;101501.91;4939405;29;20689;-67
2023/09/09 04:00:24;;;;;;;11.93;9.53;;;21.40;75.80;;;23.77;50.54;101499.03;4938713;29;20225;-67
2023/09/09 04:02:51;;;;;;;9.87;7.30;;;21.20;75.80;;;23.73;50.83;101500.59;4939327;29;20535;-67
2023/09/09 04:05:18;;;;;;;9.33;7.87;;;21.20;75.80;;;23.74;50.89;101499.53;4934040;29;20226;-67
2023/09/09 04:07:45;;;;;;;9.83;8.50;;;21.20;76.40;;;23.80;50.93;101498.56;4930071;29;20201;-67
2023/09/09 04:10:12;;;;;;;8.93;7.70;;;21.20;76.40;;;23.86;50.67;101500.28;4936981;29;20309;-65
2023/09/09 04:12:40;;;;;;;10.67;9.67;;;21.20;76.70;;;23.92;51.05;101499.31;4938888;29;20317;-66
2023/09/09 04:15:09;;;;;;;9.73;8.73;;;21.20;76.70;;;23.90;50.76;101498.75;4938892;29;20686;-66
2023/09/09 04:17:38;;;;;;;8.50;7.57;;;21.20;76.60;;;23.89;50.65;101499.78;4938936;29;20757;-66
2023/09/09 04:20:08;;;;;;;9.23;8.33;;;21.20;76.50;;;23.90;50.66;101498.75;4927745;29;20214;-66
2023/09/09 04:22:35;;;;;;;9.90;7.73;;;21.30;76.70;;;23.91;51.07;101494.19;4919032;29;20194;-66
2023/09/09 04:25:03;;;;;;;8.93;8.03;;;21.30;76.70;;;23.94;50.65;101507.13;4923381;29;20285;-65
2023/09/09 04:27:31;;;;;;;9.13;8.33;;;21.20;76.70;;;23.95;50.56;101496.13;4919833;29;20641;-65
2023/09/09 04:30:00;;;;;;;9.00;7.53;;;21.30;76.70;;;23.99;50.84;101501.81;4918629;29;20729;-67
2023/09/09 04:32:31;;;;;;;8.60;7.80;;;21.30;76.90;;;24.03;50.53;101493.03;4921591;29;20225;-67
2023/09/09 04:34:58;;;;;;;9.27;8.47;;;21.30;76.70;;;24.08;50.61;101495.81;4938350;29;20205;-67
2023/09/09 04:37:27;;;;;;;9.17;8.37;;;21.40;77.10;;;24.14;50.35;101494.03;4938264;29;20198;-70
2023/09/09 04:39:54;;;;;;;10.07;8.93;;;21.40;76.70;;;24.14;49.89;101492.16;4922093;29;20317;-67
2023/09/09 04:42:21;;;;;;;9.77;8.87;;;21.40;77.10;;;24.11;50.19;101495.34;4919167;29;20190;-67
2023/09/09 04:44:48;;;;;;;10.43;9.47;;;21.40;76.10;;;24.05;50.40;101501.69;4924853;29;20211;-67
2023/09/09 04:47:16;;;;;;;9.43;8.60;;;21.40;76.00;;;24.00;50.42;101504.28;4923251;29;20225;-65
2023/09/09 04:49:44;;;;;;;9.40;8.27;;;21.40;76.00;;;23.94;50.33;101513.31;4937824;29;20214;-67
2023/09/09 04:52:11;;;;;;;9.30;8.50;;;21.30;76.10;;;23.89;50.46;101505.16;4938325;29;20218;-65
2023/09/09 04:54:38;;;;;;;12.30;9.87;;;21.30;76.20;;;23.78;50.89;101508.75;4938373;29;20277;-66
2023/09/09 04:57:05;;;;;;;12.67;10.00;;;21.20;76.50;;;23.63;51.08;101499.63;4938044;29;20600;-65
2023/09/09 04:59:33;;;;;;;11.00;9.27;;;21.10;76.90;;;23.55;51.34;101506.19;4937212;29;20305;-66
2023/09/09 05:02:00;;;;;;;8.93;8.13;;;21.00;76.90;;;23.52;51.30;101501.28;4938343;29;20197;-66
2023/09/09 05:04:29;;;;;;;9.27;8.43;;;21.00;77.20;;;23.52;51.50;101506.66;4937760;29;20194;-66
2023/09/09 05:06:56;;;;;;;11.00;8.73;;;20.90;77.50;;;23.52;51.49;101506.66;4937939;29;20202;-66
2023/09/09 05:09:23;;;;;;;9.87;8.87;;;20.90;77.80;;;23.56;51.67;101508.63;4937257;29;20293;-66
2023/09/09 05:11:50;;;;;;;9.30;8.40;;;20.90;78.20;;;23.59;51.73;101510.00;4937686;29;20261;-66
2023/09/09 05:14:17;;;;;;;9.93;8.70;;;20.90;78.00;;;23.62;51.58;101511.41;4937488;29;20545;-66
2023/09/09 05:16:44;;;;;;;10.40;9.40;;;20.90;78.10;;;23.58;51.65;101511.09;4937868;29;20563;-66
2023/09/09 05:19:11;;;;;;;11.77;9.20;;;20.90;78.20;;;23.55;51.76;101511.56;4937065;29;20222;-66
2023/09/09 05:21:39;;;;;;;9.67;8.77;;;20.90;78.00;;;23.51;51.78;101507.72;4937628;29;20198;-66
2023/09/09 05:24:07;;;;;;;10.43;9.43;;;20.90;78.30;;;23.49;52.04;101513.34;4937366;29;20284;-66
2023/09/09 05:26:34;;;;;;;9.70;8.90;;;20.80;78.40;;;23.47;52.01;101514.63;4926220;29;20199;-66
2023/09/09 05:29:02;;;;;;;10.30;8.30;;;20.80;78.60;;;23.45;51.98;101516.75;4923661;29;20636;-66
2023/09/09 05:31:29;;;;;;;10.67;9.57;;;20.80;78.80;;;23.48;52.21;101508.22;4937209;29;20280;-67
2023/09/09 05:33:56;;;;;;;10.23;9.03;;;20.80;79.50;;;23.51;52.14;101503.16;4923312;29;20600;-65
2023/09/09 05:36:23;;;;;;;10.73;9.70;;;20.80;79.00;;;23.55;52.18;101511.56;4918242;29;20195;-65
2023/09/09 05:38:51;;;;;;;14.03;12.60;;;20.80;79.20;;;23.58;52.19;101505.72;4924540;29;20276;-65
2023/09/09 05:41:18;;;;;;;9.67;8.77;;;20.90;79.20;;;23.63;52.00;101513.06;4936123;29;20228;-65
2023/09/09 05:43:45;;;;;;;10.47;9.47;;;20.90;79.20;;;23.68;52.23;101508.56;4936778;29;20198;-66
2023/09/09 05:46:14;;;;;;;10.13;9.23;;;20.90;79.30;;;23.71;51.65;101509.94;4936809;29;20201;-66
2023/09/09 05:48:42;;;;;;;9.80;8.90;;;21.00;79.40;;;23.77;52.15;101520.56;4936929;29;20698;-66
2023/09/09 05:51:09;;;;;;;11.57;10.47;;;21.00;79.30;;;23.79;51.95;101518.47;4937041;29;20622;-65
2023/09/09 05:53:36;;;;;;;26.20;20.23;;;21.00;79.40;;;23.80;51.85;101520.06;4937090;29;20656;-66
2023/09/09 05:56:05;;;;;;;12.73;11.53;;;21.10;79.30;;;23.86;51.70;101513.75;4936936;29;20190;-66
2023/09/09 05:58:35;;;;;;;10.20;9.13;;;21.10;79.50;;;23.99;51.65;101518.78;4936322;29;20193;-66
2023/09/09 06:01:02;;;;;;;9.53;8.53;;;21.20;79.60;;;24.09;51.50;101519.00;4936366;29;20525;-67
2023/09/09 06:03:31;;;;;;;10.47;8.30;;;21.20;79.10;;;24.16;51.27;101521.50;4936540;29;20198;-66
2023/09/09 06:05:58;;;;;;;10.00;8.77;;;21.30;78.80;;;24.20;51.17;101523.47;4936822;29;20276;-65
2023/09/09 06:08:25;;;;;;;10.87;8.93;;;21.40;78.60;;;24.25;51.41;101521.94;4921417;29;20674;-65
2023/09/09 06:10:52;;;;;;;9.93;8.77;;;21.40;78.40;;;24.27;50.56;101526.00;4928629;29;20198;-65
2023/09/09 06:13:20;;;;;;;12.00;10.93;;;21.50;78.30;;;24.30;51.15;101522.81;4936545;29;20217;-67
2023/09/09 06:15:47;;;;;;;11.07;9.90;;;21.50;78.10;;;24.26;50.86;101523.56;4936693;29;20274;-67
2023/09/09 06:18:14;;;;;;;10.70;9.53;;;21.50;77.90;;;24.19;51.16;101519.16;4929612;29;20197;-66
2023/09/09 06:20:47;;;;;;;10.17;9.23;;;21.50;78.10;;;24.16;50.99;101529.59;4936201;29;20198;-66
2023/09/09 06:23:14;;;;;;;10.87;9.57;;;21.50;78.20;;;24.18;50.63;101524.78;4936584;29;20286;-67
2023/09/09 06:25:41;;;;;;;9.27;8.33;;;21.50;78.20;;;24.20;51.27;101531.53;4932203;29;20564;-67
2023/09/09 06:28:08;;;;;;;9.87;8.97;;;21.50;78.20;;;24.27;50.77;101535.97;4923456;29;20614;-67
2023/09/09 06:30:41;;;;;;;10.43;9.20;;;21.50;78.40;;;24.29;50.88;101533.84;4935800;29;20217;-66
2023/09/09 06:33:08;;;;;;;10.40;9.30;;;21.50;78.50;;;24.35;50.84;101538.22;4936593;29;20241;-66
2023/09/09 06:35:36;;;;;;;12.27;10.37;;;21.60;78.50;;;24.34;51.07;101533.91;4936365;29;20768;-67
2023/09/09 06:38:03;;;;;;;12.97;11.67;;;21.50;78.50;;;24.36;50.93;101545.25;4935227;29;20190;-68
2023/09/09 06:40:31;;;;;;;10.33;9.43;;;21.60;78.60;;;24.41;51.18;101546.16;4933270;29;20232;-66
2023/09/09 06:42:58;;;;;;;11.73;10.63;;;21.60;78.60;;;24.44;51.19;101550.22;4936373;29;20198;-67
2023/09/09 06:45:25;;;;;;;11.67;10.47;;;21.60;78.60;;;24.50;51.34;101549.22;4936192;29;20205;-67
2023/09/09 06:47:53;;;;;;;9.93;8.93;;;21.70;78.70;;;24.61;50.70;101554.53;4936086;29;20198;-67
2023/09/09 06:50:20;;;;;;;10.97;9.87;;;21.70;78.70;;;24.77;50.25;101547.53;4935939;29;20222;-67
2023/09/09 06:52:47;;;;;;;9.23;8.43;;;21.90;78.70;;;24.90;50.24;101552.53;4934315;29;20214;-67
2023/09/09 06:55:14;;;;;;;9.73;8.53;;;22.00;78.50;;;25.04;49.94;101555.66;4921534;29;20209;-67
2023/09/09 06:57:41;;;;;;;8.37;7.57;;;22.10;78.30;;;25.19;49.71;101564.78;4920938;29;20225;-67
2023/09/09 07:00:10;;;;;;;9.80;9.00;;;22.20;78.00;;;25.29;49.97;101556.78;4920694;29;20224;-66
2023/09/09 07:02:39;;;;;;;10.43;8.87;;;22.30;77.80;;;25.37;49.81;101552.84;4920894;29;20187;-67
2023/09/09 07:05:08;;;;;;;10.10;9.20;;;22.40;77.60;;;25.58;49.51;101551.25;4920940;29;20199;-66
2023/09/09 07:07:35;;;;;;;10.83;8.23;;;22.50;77.50;;;25.91;49.19;101556.44;4929426;29;20202;-67
2023/09/09 07:10:10;;;;;;;8.63;7.77;;;22.60;77.80;;;26.41;48.02;101564.94;4939640;29;20225;-67
2023/09/09 07:12:37;;;;;;;10.13;9.13;;;22.80;77.80;;;27.05;47.50;101554.03;4939764;29;20289;-67
2023/09/09 07:15:05;;;;;;;7.63;6.73;;;23.20;77.50;;;27.74;46.26;101552.63;4939500;29;20230;-67
2023/09/09 07:17:32;;;;;;;8.97;8.17;;;23.60;77.20;;;28.48;45.19;101549.44;4939508;29;20569;-66
2023/09/09 07:19:59;;;;;;;9.47;8.10;;;24.20;76.00;;;29.22;43.52;101550.34;4939122;29;20221;-68
2023/09/09 07:22:27;;;;;;;9.03;8.13;;;24.70;74.10;;;29.94;42.37;101551.56;4939010;29;20718;-66
2023/09/09 07:24:54;;;;;;;8.10;7.40;;;25.40;73.00;;;30.66;40.94;101545.22;4939997;29;20273;-67
2023/09/09 07:27:21;;;;;;;6.80;6.10;;;26.00;71.70;;;31.45;40.16;101550.00;4939401;29;20198;-67
2023/09/09 07:29:48;;;;;;;8.80;7.00;;;26.60;69.70;;;32.27;38.14;101553.06;4938847;29;20221;-65
2023/09/09 07:32:15;;;;;;;9.13;6.70;;;27.20;67.50;;;33.13;36.56;101544.91;4938080;29;20196;-67
2023/09/09 07:34:42;;;;;;;8.60;7.80;;;27.80;65.20;;;33.94;35.17;101543.06;4924523;29;20228;-66
2023/09/09 07:37:09;;;;;;;8.77;7.87;;;28.40;63.50;;;34.52;33.51;101546.47;4938460;29;20276;-66
2023/09/09 07:39:46;;;;;;;19.53;17.77;;;29.00;60.50;;;35.13;33.34;101550.25;4938757;29;20226;-67
2023/09/09 07:42:13;;;;;;;8.57;7.43;;;29.60;59.40;;;35.68;31.87;101554.06;4939095;29;20229;-66
2023/09/09 07:44:41;;;;;;;11.33;10.33;;;30.20;57.50;;;36.24;31.62;101554.94;4939074;29;20205;-67
2023/09/09 07:47:08;;;;;;;9.98;9.07;;;30.70;56.40;;;36.82;30.90;101555.09;4939242;29;20229;-67
2023/09/09 07:49:36;;;;;;;9.57;8.02;;;31.20;55.40;;;37.36;29.82;101560.75;4938583;29;20273;-67
2023/09/09 07:52:05;;;;;;;12.32;10.20;;;31.60;53.40;;;37.70;28.72;101557.75;4937839;29;20316;-67
2023/09/09 07:54:32;;;;;;;8.23;7.63;;;32.00;52.10;;;37.99;27.90;101563.16;4938819;29;20313;-67
2023/09/09 07:57:01;;;;;;;9.32;8.23;;;32.40;50.80;;;38.37;27.93;101560.97;4919803;29;20194;-67
2023/09/09 07:59:29;;;;;;;8.25;7.47;;;32.70;49.70;;;38.76;27.25;101556.00;4917805;29;20695;-68
2023/09/09 08:01:56;;;;;;;7.90;7.20;;;33.10;48.70;;;39.05;27.23;101553.81;4919872;29;20266;-67
2023/09/09 08:04:23;;;;;;;9.63;7.68;;;33.40;49.20;;;39.34;26.19;101555.50;4937555;29;20202;-68
2023/09/09 08:06:52;;;;;;;7.80;7.20;;;33.70;47.30;;;39.64;26.54;101564.25;4938725;29;20197;-67
2023/09/09 08:09:23;;;;;;;6.97;6.43;;;34.00;46.50;;;40.07;25.92;101566.28;4938241;29;20270;-65
2023/09/09 08:11:50;;;;;;;8.75;7.88;;;34.30;46.30;;;40.39;25.16;101545.84;4938367;29;20233;-67
2023/09/09 08:14:18;;;;;;;8.45;7.75;;;34.50;44.90;;;40.52;24.88;101561.16;4938054;29;20749;-65
2023/09/09 08:16:45;;;;;;;8.77;7.97;;;34.80;44.00;;;40.36;25.04;101557.59;4938553;29;20273;-67
2023/09/09 08:19:13;;;;;;;8.50;7.72;;;35.00;43.60;;;40.06;25.41;101562.69;4931057;29;20653;-65
2023/09/09 08:21:40;;;;;;;8.45;7.55;;;35.10;43.30;;;39.80;25.50;101560.41;4938136;29;20734;-67
2023/09/09 08:24:07;;;;;;;9.60;8.80;;;35.10;43.50;;;39.54;25.97;101554.50;4937997;29;20186;-66
2023/09/09 08:26:34;;;;;;;7.72;7.13;;;35.00;42.70;;;39.46;25.76;101568.44;4927009;29;20202;-65
2023/09/09 08:29:01;;;;;;;9.48;8.30;;;34.90;43.60;;;39.75;25.37;101559.84;4918790;29;20249;-66
2023/09/09 08:31:29;;;;;;;8.77;7.97;;;34.80;43.00;;;40.02;24.96;101569.28;4919046;29;20205;-67
2023/09/09 08:33:56;;;;;;;9.35;8.30;;;34.70;43.30;;;40.17;24.89;101555.53;4932756;29;20229;-66
2023/09/09 08:36:25;;;;;;;8.27;7.03;;;34.80;42.90;;;40.39;24.68;101556.88;4938270;29;20198;-66
2023/09/09 08:38:56;;;;;;;8.55;7.75;;;34.90;42.90;;;40.67;24.98;101556.78;4937157;29;20214;-66
2023/09/09 08:41:45;;;;;;;7.68;7.07;;;35.10;42.90;;;41.10;24.18;101559.44;4937930;29;20182;-66
2023/09/09 08:44:28;;;;;;;8.35;7.50;;;35.40;42.80;;;41.34;24.54;101555.63;4937663;29;20530;-68
2023/09/09 08:46:57;;;;;;;9.57;8.57;;;35.80;42.10;;;41.34;24.31;101555.63;4937657;29;20212;-66
2023/09/09 08:49:31;;;;;;;7.65;6.85;;;36.10;41.60;;;41.28;24.00;101559.81;4937423;29;20218;-66
2023/09/09 08:52:04;;;;;;;7.95;7.15;;;36.30;40.80;;;41.59;23.92;101559.69;4942513;29;20269;-66
2023/09/09 08:54:31;;;;;;;7.38;6.68;;;36.50;41.00;;;42.22;23.59;101565.72;4918303;29;20778;-65
2023/09/09 08:57:02;;;;;;;8.43;7.32;;;36.60;40.80;;;42.91;22.65;101564.53;4918212;29;20715;-66
2023/09/09 08:59:32;;;;;;;8.07;7.38;;;36.80;40.40;;;43.45;21.97;101562.13;4917419;29;20225;-68
2023/09/09 09:02:02;;;;;;;7.80;7.00;;;37.10;39.30;;;43.77;21.53;101562.50;4918582;29;20189;-68
2023/09/09 09:04:31;;;;;;;7.15;6.65;;;37.50;39.40;;;44.21;21.18;101559.81;4918609;29;20269;-66
2023/09/09 09:07:01;;;;;;;7.57;6.97;;;37.70;37.90;;;44.44;21.06;101560.41;4927956;29;20199;-66
2023/09/09 09:09:29;;;;;;;10.10;8.68;;;38.10;38.00;;;44.72;20.68;101557.84;4935817;29;20296;-66
2023/09/09 09:12:00;;;;;;;7.75;7.15;;;38.30;36.80;;;44.80;20.94;101553.94;4937309;29;20202;-66
2023/09/09 09:14:27;;;;;;;7.30;6.72;;;38.70;37.30;;;45.21;20.17;101554.63;4937256;29;20299;-66
2023/09/09 09:16:55;;;;;;;8.70;7.22;;;38.90;36.60;;;45.54;19.96;101553.56;4938066;29;20289;-65
2023/09/09 09:19:29;;;;;;;7.70;7.10;;;39.00;35.70;;;45.78;19.59;101557.63;4936475;29;20749;-68
2023/09/09 09:21:58;;;;;;;6.30;5.90;;;39.30;35.80;;;46.12;19.58;101553.34;4936790;29;20225;-66
2023/09/09 09:24:26;;;;;;;7.43;6.72;;;39.50;35.70;;;46.44;19.02;101561.72;4935787;29;20190;-66
2023/09/09 09:26:58;;;;;;;7.38;6.75;;;39.80;35.20;;;46.73;18.76;101560.53;4936481;29;20221;-65
2023/09/09 09:29:38;;;;;;;10.50;7.75;;;40.10;34.50;;;46.66;18.45;101564.09;4936550;29;20631;-66
2023/09/09 09:32:08;;;;;;;6.68;6.05;;;40.20;33.50;;;46.72;18.62;101564.50;4936913;29;20193;-67
2023/09/09 09:34:37;;;;;;;6.90;6.40;;;40.40;33.90;;;47.16;18.61;101576.00;4936709;29;20220;-69
2023/09/09 09:37:10;;;;;;;6.07;5.57;;;40.60;34.00;;;47.55;18.13;101562.66;4936136;29;20204;-66
2023/09/09 09:39:37;;;;;;;9.13;7.07;;;40.80;33.10;;;47.92;17.80;101561.28;4936530;29;20382;-66
2023/09/09 09:42:05;;;;;;;6.70;6.20;;;41.00;32.80;;;48.09;17.07;101557.56;4936440;29;20560;-68
2023/09/09 09:44:32;;;;;;;7.03;6.20;;;41.20;32.60;;;48.05;17.66;101560.38;4936421;29;20202;-67
2023/09/09 09:47:03;;;;;;;8.27;7.57;;;41.30;32.20;;;48.32;17.54;101563.38;4925116;29;20199;-66
2023/09/09 09:49:36;;;;;;;7.03;6.38;;;41.50;32.30;;;48.78;17.52;101563.78;4916862;29;20691;-66
2023/09/09 09:52:05;;;;;;;8.63;7.75;;;41.60;31.70;;;48.93;17.00;101560.84;4917198;29;20203;-66
2023/09/09 09:54:34;;;;;;;6.80;6.18;;;41.80;31.60;;;48.89;17.47;101558.06;4917497;29;20222;-66
2023/09/09 09:57:04;;;;;;;7.53;6.88;;;42.00;31.60;;;48.37;17.28;101557.34;4935030;29;20220;-66
2023/09/09 09:59:35;;;;;;;7.97;7.18;;;41.80;30.70;;;47.38;17.90;101554.38;4935821;29;20214;-66
2023/09/09 10:02:05;;;;;;;7.07;6.43;;;41.60;30.90;;;46.25;18.91;101548.94;4934978;29;20285;-68
2023/09/09 10:04:41;;;;;;;7.03;6.50;;;41.30;31.30;;;45.48;20.11;101549.56;4917107;29;20568;-66
2023/09/09 10:07:13;;;;;;;8.07;7.38;;;41.00;31.90;;;44.82;19.95;101554.34;4922932;29;20615;-68
2023/09/09 10:09:49;;;;;;;6.90;6.30;;;40.40;32.50;;;44.19;21.03;101545.50;4935941;29;20312;-68
2023/09/09 10:12:47;;;;;;;7.80;7.10;;;40.00;33.20;;;43.89;22.08;101555.91;4916316;29;20229;-68
2023/09/09 10:15:16;;;;;;;7.50;6.90;;;39.50;34.40;;;43.81;21.34;101551.44;4934862;29;20257;-66
2023/09/09 10:17:45;;;;;;;7.75;6.95;;;39.10;35.00;;;43.77;21.72;101540.28;4933605;29;20276;-67
2023/09/09 10:20:15;;;;;;;6.95;6.25;;;38.90;35.80;;;43.48;21.94;101547.47;4916558;29;20305;-67